Map

Track Data

SID SEASON NUMBER BASIN SUBBASIN NAME ISO_TIME NATURE LAT LON WMO_WIND WMO_PRES WMO_AGENCY TRACK_TYPE DIST2LAND LANDFALL IFLAG USA_AGENCY USA_ATCF_ID USA_LAT USA_LON USA_RECORD USA_STATUS USA_WIND USA_PRES USA_SSHS USA_R34_NE USA_R34_SE USA_R34_SW USA_R34_NW USA_R50_NE USA_R50_SE USA_R50_SW USA_R50_NW USA_R64_NE USA_R64_SE USA_R64_SW USA_R64_NW USA_POCI USA_ROCI USA_RMW USA_EYE TOKYO_LAT TOKYO_LON TOKYO_GRADE TOKYO_WIND TOKYO_PRES TOKYO_R50_DIR TOKYO_R50_LONG TOKYO_R50_SHORT TOKYO_R30_DIR TOKYO_R30_LONG TOKYO_R30_SHORT TOKYO_LAND CMA_LAT CMA_LON CMA_CAT CMA_WIND CMA_PRES HKO_LAT HKO_LON HKO_CAT HKO_WIND HKO_PRES NEWDELHI_LAT NEWDELHI_LON NEWDELHI_GRADE NEWDELHI_WIND NEWDELHI_PRES NEWDELHI_CI NEWDELHI_DP NEWDELHI_POCI REUNION_LAT REUNION_LON REUNION_TYPE REUNION_WIND REUNION_PRES REUNION_TNUM REUNION_CI REUNION_RMW REUNION_R34_NE REUNION_R34_SE REUNION_R34_SW REUNION_R34_NW REUNION_R50_NE REUNION_R50_SE REUNION_R50_SW REUNION_R50_NW REUNION_R64_NE REUNION_R64_SE REUNION_R64_SW REUNION_R64_NW BOM_LAT BOM_LON BOM_TYPE BOM_WIND BOM_PRES BOM_TNUM BOM_CI BOM_RMW BOM_R34_NE BOM_R34_SE BOM_R34_SW BOM_R34_NW BOM_R50_NE BOM_R50_SE BOM_R50_SW BOM_R50_NW BOM_R64_NE BOM_R64_SE BOM_R64_SW BOM_R64_NW BOM_ROCI BOM_POCI BOM_EYE BOM_POS_METHOD BOM_PRES_METHOD NADI_LAT NADI_LON NADI_CAT NADI_WIND NADI_PRES WELLINGTON_LAT WELLINGTON_LON WELLINGTON_WIND WELLINGTON_PRES DS824_LAT DS824_LON DS824_STAGE DS824_WIND DS824_PRES TD9636_LAT TD9636_LON TD9636_STAGE TD9636_WIND TD9636_PRES TD9635_LAT TD9635_LON TD9635_WIND TD9635_PRES TD9635_ROCI NEUMANN_LAT NEUMANN_LON NEUMANN_CLASS NEUMANN_WIND NEUMANN_PRES MLC_LAT MLC_LON MLC_CLASS MLC_WIND MLC_PRES USA_GUST BOM_GUST BOM_GUST_PER REUNION_GUST REUNION_GUST_PER USA_SEAHGT USA_SEARAD_NE USA_SEARAD_SE USA_SEARAD_SW USA_SEARAD_NW STORM_SPEED STORM_DIR
1912288N09132 1912 55 WP MM NOT_NAMED 1912-10-13 16:00:00 NR 9.00000 132.000 main 612 540 __________O___ -1 9.00000 132.000 7 21 276
1912288N09132 1912 55 WP MM NOT_NAMED 1912-10-13 18:00:00 NR 9.07885 131.291 main 540 440 __________P___ -1 9.07885 131.291 7 21 276
1912288N09132 1912 55 WP MM NOT_NAMED 1912-10-13 21:00:00 NR 9.19112 130.262 main 440 334 __________P___ -1 9.19112 130.262 7 20 276
1912288N09132 1912 55 WP MM NOT_NAMED 1912-10-14 00:00:00 NR 9.29171 129.321 main 334 250 __________P___ -1 9.29171 129.321 7 17 276
1912288N09132 1912 55 WP MM NOT_NAMED 1912-10-14 03:00:00 NR 9.37615 128.524 main 250 229 __________P___ -1 9.37615 128.524 7 15 276
1912288N09132 1912 55 WP MM NOT_NAMED 1912-10-14 04:00:00 NR 9.40000 128.300 main 229 188 __________O___ -1 9.40000 128.300 3 12 276
1912288N09132 1912 55 WP MM NOT_NAMED 1912-10-14 06:00:00 NR 9.44104 127.919 main 188 146 __________P___ -1 9.44104 127.919 3 10 276
1912288N09132 1912 55 WP MM NOT_NAMED 1912-10-14 09:00:00 NR 9.49092 127.486 main 146 114 __________P___ -1 9.49092 127.486 3 8 277
1912288N09132 1912 55 WP MM NOT_NAMED 1912-10-14 12:00:00 NR 9.53499 127.165 main 114 88 __________P___ -1 9.53499 127.165 3 6 279
1912288N09132 1912 55 WP MM NOT_NAMED 1912-10-14 15:00:00 NR 9.58211 126.891 main 88 79 __________P___ -1 9.58211 126.891 3 5 280
1912288N09132 1912 55 WP MM NOT_NAMED 1912-10-14 16:00:00 NR 9.60000 126.800 main 79 62 __________O___ -1 9.60000 126.800 4 7 280
1912288N09132 1912 55 WP MM NOT_NAMED 1912-10-14 18:00:00 NR 9.64161 126.561 main 62 31 __________P___ -1 9.64161 126.561 4 7 281
1912288N09132 1912 55 WP MM NOT_NAMED 1912-10-14 21:00:00 NR 9.71035 126.216 main 31 22 __________P___ -1 9.71035 126.216 4 7 282
1912288N09132 1912 55 WP MM NOT_NAMED 1912-10-15 00:00:00 NR 9.78662 125.891 main 31 15 __________P___ -1 9.78662 125.891 4 6 285
1912288N09132 1912 55 WP MM NOT_NAMED 1912-10-15 03:00:00 NR 9.87041 125.592 main 22 22 __________P___ -1 9.87041 125.592 4 6 286
1912288N09132 1912 55 WP MM NOT_NAMED 1912-10-15 04:00:00 NR 9.90000 125.500 main 22 22 __________O___ -1 9.90000 125.500 4 6 289
1912288N09132 1912 55 WP MM NOT_NAMED 1912-10-15 06:00:00 NR 9.96086 125.322 main 31 10 __________P___ -1 9.96086 125.322 4 5 291
1912288N09132 1912 55 WP MM NOT_NAMED 1912-10-15 09:00:00 NR 10.0585 125.080 main 10 0 __________P___ -1 10.0585 125.080 4 5 294
1912288N09132 1912 55 WP MM NOT_NAMED 1912-10-15 12:00:00 NR 10.1611 124.862 main 0 0 __________P___ -1 10.1611 124.862 4 5 297
1912288N09132 1912 55 WP MM NOT_NAMED 1912-10-15 15:00:00 NR 10.2654 124.663 main 10 10 __________P___ -1 10.2654 124.663 4 4 298
1912288N09132 1912 55 WP MM NOT_NAMED 1912-10-15 16:00:00 NR 10.3000 124.600 main 21 21 __________O___ -1 10.3000 124.600 4 4 298
1912288N09132 1912 55 WP MM NOT_NAMED 1912-10-15 18:00:00 NR 10.3481 124.500 main 24 24 __________P___ -1 10.3481 124.500 4 3 298
1912288N09132 1912 55 WP MM NOT_NAMED 1912-10-15 21:00:00 NR 10.4199 124.365 main 33 21 __________P___ -1 10.4199 124.365 4 3 299
1912288N09132 1912 55 WP MM NOT_NAMED 1912-10-16 00:00:00 NR 10.5109 124.209 main 21 0 __________P___ -1 10.5109 124.209 4 4 301
1912288N09132 1912 55 WP MM NOT_NAMED 1912-10-16 03:00:00 NR 10.6430 123.993 main 0 0 __________P___ -1 10.6430 123.993 4 5 302
1912288N09132 1912 55 WP MM NOT_NAMED 1912-10-16 04:00:00 NR 10.7000 123.900 main 0 0 __________O___ -1 10.7000 123.900 4 8 303
1912288N09132 1912 55 WP MM NOT_NAMED 1912-10-16 06:00:00 NR 10.8513 123.674 main 15 0 __________P___ -1 10.8513 123.674 4 9 304
1912288N09132 1912 55 WP MM NOT_NAMED 1912-10-16 09:00:00 NR 11.1225 123.264 main 22 0 __________P___ -1 11.1225 123.264 4 10 303
1912288N09132 1912 55 WP MM NOT_NAMED 1912-10-16 12:00:00 NR 11.4190 122.792 main 0 0 __________P___ -1 11.4190 122.792 4 11 301
1912288N09132 1912 55 WP MM NOT_NAMED 1912-10-16 15:00:00 NR 11.7097 122.277 main 0 0 __________P___ -1 11.7097 122.277 4 12 299
1912288N09132 1912 55 WP MM NOT_NAMED 1912-10-16 16:00:00 NR 11.8000 122.100 main 0 0 __________O___ -1 11.8000 122.100 4 11 295
1912288N09132 1912 55 WP MM NOT_NAMED 1912-10-16 18:00:00 NR 11.9531 121.753 main 22 0 __________P___ -1 11.9531 121.753 4 11 293
1912288N09132 1912 55 WP MM NOT_NAMED 1912-10-16 21:00:00 NR 12.1638 121.208 main 0 0 __________P___ -1 12.1638 121.208 4 12 291
1912288N09132 1912 55 WP MM NOT_NAMED 1912-10-17 00:00:00 NR 12.3575 120.647 main 39 39 __________P___ -1 12.3575 120.647 4 12 289
1912288N09132 1912 55 WP MM NOT_NAMED 1912-10-17 03:00:00 NR 12.5403 120.085 main 79 76 __________P___ -1 12.5403 120.085 4 12 288
1912288N09132 1912 55 WP MM NOT_NAMED 1912-10-17 04:00:00 NR 12.6000 119.900 main 93 93 __________O___ -1 12.6000 119.900 4 11 289
1912288N09132 1912 55 WP MM NOT_NAMED 1912-10-17 06:00:00 NR 12.7246 119.549 main 116 109 __________P___ -1 12.7246 119.549 4 11 290
1912288N09132 1912 55 WP MM NOT_NAMED 1912-10-17 09:00:00 NR 12.9056 119.030 main 151 151 __________P___ -1 12.9056 119.030 4 11 289
1912288N09132 1912 55 WP MM NOT_NAMED 1912-10-17 12:00:00 NR 13.0794 118.510 main 197 197 __________P___ -1 13.0794 118.510 4 11 288
1912288N09132 1912 55 WP MM NOT_NAMED 1912-10-17 15:00:00 NR 13.2460 117.980 main 250 249 __________P___ -1 13.2460 117.980 4 11 288
1912288N09132 1912 55 WP MM NOT_NAMED 1912-10-17 16:00:00 NR 13.3000 117.800 main 270 270 __________O___ -1 13.3000 117.800 4 11 287
1912288N09132 1912 55 WP MM NOT_NAMED 1912-10-17 18:00:00 NR 13.4053 117.441 main 313 313 __________P___ -1 13.4053 117.441 4 11 286
1912288N09132 1912 55 WP MM NOT_NAMED 1912-10-17 21:00:00 NR 13.5571 116.890 main 368 368 __________P___ -1 13.5571 116.890 4 11 285
1912288N09132 1912 55 WP MM NOT_NAMED 1912-10-18 00:00:00 NR 13.7046 116.317 main 427 427 __________P___ -1 13.7046 116.317 4 12 284
1912288N09132 1912 55 WP MM NOT_NAMED 1912-10-18 03:00:00 NR 13.8509 115.711 main 482 482 __________P___ -1 13.8509 115.711 4 12 284
1912288N09132 1912 55 WP MM NOT_NAMED 1912-10-18 04:00:00 NR 13.9000 115.500 main 502 502 __________O___ -1 13.9000 115.500 4 13 284
1912288N09132 1912 55 WP MM NOT_NAMED 1912-10-18 06:00:00 NR 14.0080 115.049 main 550 539 __________P___ -1 14.0080 115.049 4 14 284
1912288N09132 1912 55 WP MM NOT_NAMED 1912-10-18 09:00:00 NR 14.1702 114.340 main 539 466 __________P___ -1 14.1702 114.340 4 14 283
1912288N09132 1912 55 WP MM NOT_NAMED 1912-10-18 12:00:00 NR 14.3241 113.621 main 466 394 __________P___ -1 14.3241 113.621 4 14 282
1912288N09132 1912 55 WP MM NOT_NAMED 1912-10-18 15:00:00 NR 14.4601 112.923 main 394 372 __________P___ -1 14.4601 112.923 4 14 281
1912288N09132 1912 55 WP MM NOT_NAMED 1912-10-18 16:00:00 NR 14.5000 112.700 main 372 332 __________O___ -1 14.5000 112.700 4 13 280
1912288N09132 1912 55 WP MM NOT_NAMED 1912-10-18 18:00:00 NR 14.5703 112.274 main 332 270 __________P___ -1 14.5703 112.274 4 12 279
1912288N09132 1912 55 WP MM NOT_NAMED 1912-10-18 21:00:00 NR 14.6559 111.677 main 273 213 __________P___ -1 14.6559 111.677 4 11 278
1912288N09132 1912 55 WP MM NOT_NAMED 1912-10-19 00:00:00 NR 14.7241 111.117 main 213 161 __________P___ -1 14.7241 111.117 4 11 277
1912288N09132 1912 55 WP MM NOT_NAMED 1912-10-19 03:00:00 NR 14.7819 110.578 main 161 140 __________P___ -1 14.7819 110.578 4 10 276
1912288N09132 1912 55 WP MM NOT_NAMED 1912-10-19 04:00:00 NR 14.8000 110.400 main 140 __________O___ -1 14.8000 110.400 4 10 276

Digital Typhoon Data and Search

About IBTrACS Database

This database is a web-friendly format of International Best Track Archive for Climate Stewardship (IBTrACS), a global best track data archive curated by NOAA dating back to 1842.

Updated: 2021-12-03